createdAt,value
2022-08-20T00:01:28.932Z,99687.60
2022-08-20T00:05:39.855Z,99695.66
2022-08-20T00:09:48.337Z,99697.00
2022-08-20T00:13:58.793Z,99708.11
2022-08-20T00:18:07.563Z,99714.16
2022-08-20T00:22:15.557Z,99730.41
2022-08-20T00:26:24.743Z,99729.43
2022-08-20T00:30:33.746Z,99731.27
2022-08-20T00:34:42.383Z,99737.77
2022-08-20T00:38:50.353Z,99740.10
2022-08-20T00:43:00.683Z,99750.74
2022-08-20T00:47:09.583Z,99741.81
2022-08-20T00:51:23.560Z,99738.77
2022-08-20T00:55:32.323Z,99739.91
2022-08-20T00:59:42.603Z,99748.00
2022-08-20T01:03:50.419Z,99752.33
2022-08-20T01:07:59.285Z,99754.27
2022-08-20T01:12:08.472Z,99762.73
2022-08-20T01:16:21.070Z,99768.47
2022-08-20T01:20:31.924Z,99765.52
2022-08-20T01:24:41.866Z,99762.75
2022-08-20T01:28:52.510Z,99757.30
2022-08-20T01:33:00.528Z,99753.26
2022-08-20T01:37:08.216Z,99747.08
2022-08-20T01:41:35.239Z,99738.83
2022-08-20T01:45:43.318Z,99738.87
2022-08-20T01:49:53.665Z,99739.09
2022-08-20T01:54:03.215Z,99740.80
2022-08-20T01:58:11.395Z,99740.80
2022-08-20T02:02:19.145Z,99736.15
2022-08-20T02:06:29.292Z,99719.90
2022-08-20T02:10:37.549Z,99707.44
2022-08-20T02:14:47.840Z,99701.26
2022-08-20T02:18:58.687Z,99694.02
2022-08-20T02:23:07.235Z,99689.41
2022-08-20T02:27:16.299Z,99694.05
2022-08-20T02:31:25.415Z,99699.02
2022-08-20T02:35:33.787Z,99706.09
2022-08-20T02:39:41.463Z,99712.00
2022-08-20T02:43:49.952Z,99709.15
2022-08-20T02:47:59.331Z,99695.39
2022-08-20T02:52:08.216Z,99691.75
2022-08-20T02:56:18.293Z,99673.25
2022-08-20T03:00:26.828Z,99672.89
2022-08-20T03:04:34.606Z,99694.23
2022-08-20T03:08:42.969Z,99707.67
2022-08-20T03:12:50.837Z,99704.60
2022-08-20T03:16:59.757Z,99697.02
2022-08-20T03:21:09.865Z,99686.33
2022-08-20T03:25:18.193Z,99686.42
2022-08-20T03:29:25.891Z,99693.03
2022-08-20T03:33:33.532Z,99697.61
2022-08-20T03:37:42.209Z,99696.65
2022-08-20T03:41:56.179Z,99690.98
2022-08-20T03:46:04.938Z,99702.30
2022-08-20T03:50:33.002Z,99707.03
2022-08-20T03:54:40.694Z,99704.72
2022-08-20T03:58:49.969Z,99697.36
2022-08-20T04:02:57.778Z,99696.83
2022-08-20T04:07:12.733Z,99692.47
2022-08-20T04:11:20.732Z,99692.61
2022-08-20T04:15:28.975Z,99693.95
2022-08-20T04:19:37.082Z,99693.71
2022-08-20T04:23:44.825Z,99695.16
2022-08-20T04:27:52.728Z,99714.07
2022-08-20T04:32:02.772Z,99725.48
2022-08-20T04:36:14.753Z,99732.00
2022-08-20T04:40:42.239Z,99733.06
2022-08-20T04:44:50.005Z,99734.84
2022-08-20T04:48:58.390Z,99729.54
2022-08-20T04:53:07.160Z,99735.30
2022-08-20T04:57:14.971Z,99741.98
2022-08-20T05:01:24.457Z,99746.77
2022-08-20T05:05:32.505Z,99764.52
2022-08-20T05:09:43.821Z,99768.28
2022-08-20T05:13:53.836Z,99760.52
2022-08-20T05:18:06.287Z,99769.60
2022-08-20T05:22:13.928Z,99771.21
2022-08-20T05:26:23.097Z,99765.58
2022-08-20T05:30:34.296Z,99763.46
2022-08-20T05:34:43.541Z,99763.43
2022-08-20T05:38:52.542Z,99756.20
2022-08-20T05:43:00.490Z,99758.77
2022-08-20T05:47:09.497Z,99762.96
2022-08-20T05:51:18.877Z,99759.73
2022-08-20T05:55:26.635Z,99750.13
2022-08-20T05:59:36.971Z,99750.70
2022-08-20T06:04:02.149Z,99738.50
2022-08-20T06:08:12.015Z,99736.56
2022-08-20T06:12:21.287Z,99738.90
2022-08-20T06:16:29.636Z,99753.42
2022-08-20T06:20:40.144Z,99756.23
2022-08-20T06:24:48.197Z,99765.21
2022-08-20T06:28:55.947Z,99766.80
2022-08-20T06:33:03.453Z,99768.48
2022-08-20T06:37:19.224Z,99767.71
2022-08-20T06:41:36.133Z,99762.83
2022-08-20T06:45:45.238Z,99767.52
2022-08-20T06:49:53.050Z,99767.59
2022-08-20T06:54:00.647Z,99775.27
2022-08-20T06:58:15.634Z,99779.55
2022-08-20T07:02:38.635Z,99784.20
2022-08-20T07:06:48.404Z,99771.19
2022-08-20T07:10:56.197Z,99772.55
2022-08-20T07:15:03.665Z,99778.94
2022-08-20T07:19:11.396Z,99772.95
2022-08-20T07:23:19.107Z,99771.23
2022-08-20T07:27:26.852Z,99775.46
2022-08-20T07:31:52.448Z,99763.02
2022-08-20T07:36:03.863Z,99755.67
2022-08-20T07:40:15.902Z,99750.89
2022-08-20T07:44:30.919Z,99751.50
2022-08-20T07:48:42.105Z,99752.63
2022-08-20T07:52:52.742Z,99753.13
2022-08-20T07:57:04.105Z,99760.59
2022-08-20T08:01:12.308Z,99776.88
2022-08-20T08:05:20.076Z,99781.29
2022-08-20T08:09:28.261Z,99779.17
2022-08-20T08:13:38.777Z,99768.19
2022-08-20T08:17:48.723Z,99769.80
2022-08-20T08:21:58.628Z,99768.56
2022-08-20T08:26:06.702Z,99772.77
2022-08-20T08:30:23.933Z,99771.62
2022-08-20T08:34:32.194Z,99772.23
2022-08-20T08:38:45.953Z,99771.08
2022-08-20T08:42:58.469Z,99773.46
2022-08-20T08:47:14.093Z,99771.89
2022-08-20T08:51:37.632Z,99763.54
2022-08-20T08:55:45.578Z,99762.84
2022-08-20T09:00:04.240Z,99772.06
2022-08-20T09:04:13.448Z,99776.36
2022-08-20T09:08:24.288Z,99776.58
2022-08-20T09:12:33.399Z,99776.08
2022-08-20T09:16:52.431Z,99765.95
2022-08-20T09:21:01.410Z,99768.50
2022-08-20T09:25:10.452Z,99763.35
2022-08-20T09:29:18.489Z,99760.18
2022-08-20T09:33:26.650Z,99760.66
2022-08-20T09:37:37.695Z,99758.31
2022-08-20T09:41:46.036Z,99756.42
2022-08-20T09:45:53.829Z,99762.04
2022-08-20T09:50:01.617Z,99762.75
2022-08-20T09:54:10.736Z,99767.83
2022-08-20T09:58:22.817Z,99767.20
2022-08-20T10:02:31.090Z,99768.41
2022-08-20T10:06:44.263Z,99773.11
2022-08-20T10:10:56.000Z,99777.56
2022-08-20T10:15:04.135Z,99780.15
2022-08-20T10:19:11.963Z,99775.88
2022-08-20T10:23:19.603Z,99773.67
2022-08-20T10:27:27.225Z,99769.09
2022-08-20T10:31:35.272Z,99761.20
2022-08-20T10:35:42.818Z,99760.75
2022-08-20T10:39:53.184Z,99763.10
2022-08-20T10:44:01.164Z,99763.39
2022-08-20T10:48:11.111Z,99760.48
2022-08-20T10:52:19.688Z,99770.09
2022-08-20T10:56:27.428Z,99765.66
2022-08-20T11:00:35.219Z,99770.44
2022-08-20T11:04:43.129Z,99765.20
2022-08-20T11:08:50.775Z,99768.92
2022-08-20T11:13:00.720Z,99761.91
2022-08-20T11:17:11.625Z,99764.88
2022-08-20T11:21:21.693Z,99756.66
2022-08-20T11:25:29.781Z,99755.74
2022-08-20T11:29:37.389Z,99758.48
2022-08-20T11:33:45.874Z,99752.63
2022-08-20T11:37:57.724Z,99748.59
2022-08-20T11:42:06.038Z,99745.91
2022-08-20T11:46:13.664Z,99742.92
2022-08-20T11:50:25.602Z,99736.13
2022-08-20T11:54:40.806Z,99733.33
2022-08-20T11:58:48.912Z,99728.53
2022-08-20T12:02:57.137Z,99719.27
2022-08-20T12:07:15.036Z,99715.86
2022-08-20T12:11:22.736Z,99713.08
2022-08-20T12:15:30.168Z,99706.81
2022-08-20T12:19:40.272Z,99708.52
2022-08-20T12:23:48.973Z,99708.30
2022-08-20T12:27:56.548Z,99708.42
2022-08-20T12:32:05.488Z,99714.57
2022-08-20T12:36:13.712Z,99713.63
2022-08-20T12:40:31.764Z,99704.35
2022-08-20T12:44:42.699Z,99694.91
2022-08-20T12:48:50.135Z,99696.88
2022-08-20T12:52:58.104Z,99703.71
2022-08-20T12:57:08.017Z,99695.76
2022-08-20T13:01:17.262Z,99692.38
2022-08-20T13:05:25.008Z,99694.79
2022-08-20T13:09:36.012Z,99691.54
2022-08-20T13:13:48.527Z,99684.14
2022-08-20T13:17:59.192Z,99680.85
2022-08-20T13:22:09.108Z,99676.18
2022-08-20T13:26:17.411Z,99662.34
2022-08-20T13:30:25.624Z,99667.27
2022-08-20T13:34:33.598Z,99683.86
2022-08-20T13:38:41.762Z,99688.55
2022-08-20T13:42:50.166Z,99688.88
2022-08-20T13:46:58.268Z,99683.89
2022-08-20T13:51:07.067Z,99679.83
2022-08-20T13:55:16.827Z,99686.21
2022-08-20T13:59:25.411Z,99689.26
2022-08-20T14:03:36.112Z,99689.52
2022-08-20T14:07:48.006Z,99698.71
2022-08-20T14:11:55.691Z,99710.27
2022-08-20T14:16:03.813Z,99714.42
2022-08-20T14:20:16.086Z,99717.27
2022-08-20T14:24:26.193Z,99721.84
2022-08-20T14:28:34.625Z,99731.16
2022-08-20T14:32:43.322Z,99733.23
2022-08-20T14:36:50.813Z,99741.35
2022-08-20T14:40:59.233Z,99756.10
2022-08-20T14:45:09.151Z,99772.23
2022-08-20T14:49:17.896Z,99781.91
2022-08-20T14:53:25.850Z,99791.33
2022-08-20T14:57:33.756Z,99787.58
2022-08-20T15:01:41.728Z,99791.98
2022-08-20T15:05:50.241Z,99809.91
2022-08-20T15:09:58.799Z,99823.07
2022-08-20T15:14:06.762Z,99822.70
2022-08-20T15:18:14.394Z,99825.98
2022-08-20T15:22:21.967Z,99823.49
2022-08-20T15:26:31.962Z,99820.96
2022-08-20T15:30:41.748Z,99819.31
2022-08-20T15:34:52.189Z,99818.58
2022-08-20T15:39:02.284Z,99816.07
2022-08-20T15:43:10.259Z,99818.29
2022-08-20T15:47:24.782Z,99823.06
2022-08-20T15:51:38.464Z,99831.13
2022-08-20T15:55:54.242Z,99832.77
2022-08-20T16:00:10.741Z,99833.92
2022-08-20T16:04:38.664Z,99834.41
2022-08-20T16:09:00.962Z,99838.40
2022-08-20T16:13:14.615Z,99840.96
2022-08-20T16:17:30.799Z,99842.41
2022-08-20T16:21:42.234Z,99842.91
2022-08-20T16:25:58.608Z,99852.73
2022-08-20T16:30:10.017Z,99856.65
2022-08-20T16:34:33.332Z,99856.02
2022-08-20T16:38:52.563Z,99839.16
2022-08-20T16:43:04.707Z,99834.30
2022-08-20T16:47:18.394Z,99843.20
2022-08-20T16:51:40.958Z,99846.08
2022-08-20T16:55:49.086Z,99856.89
2022-08-20T17:00:08.245Z,99851.58
2022-08-20T17:04:24.703Z,99849.52
2022-08-20T17:08:36.159Z,99855.33
2022-08-20T17:12:43.942Z,99875.76
2022-08-20T17:16:55.210Z,99888.41
2022-08-20T17:21:13.623Z,99891.88
2022-08-20T17:25:30.707Z,99902.53
2022-08-20T17:29:49.660Z,99901.52
2022-08-20T17:33:57.970Z,99895.70
2022-08-20T17:38:07.208Z,99894.55
2022-08-20T17:42:19.361Z,99891.63
2022-08-20T17:46:29.119Z,99884.66
2022-08-20T17:50:40.956Z,99876.14
2022-08-20T17:54:51.154Z,99878.10
2022-08-20T17:59:05.883Z,99877.40
2022-08-20T18:03:22.711Z,99871.98
2022-08-20T18:07:40.192Z,99874.54
2022-08-20T18:11:54.323Z,99877.14
2022-08-20T18:16:04.092Z,99870.32
2022-08-20T18:20:26.945Z,99875.14
2022-08-20T18:24:40.384Z,99873.61
2022-08-20T18:28:52.199Z,99878.86
2022-08-20T18:33:06.962Z,99879.01
2022-08-20T18:37:28.272Z,99884.20
2022-08-20T18:41:38.442Z,99889.52
2022-08-20T18:45:45.737Z,99896.43
2022-08-20T18:50:16.101Z,99906.54
2022-08-20T18:54:28.234Z,99914.75
2022-08-20T18:58:38.536Z,99920.48
2022-08-20T19:03:03.453Z,99932.20
2022-08-20T19:07:15.493Z,99928.19
2022-08-20T19:11:49.146Z,99923.98
2022-08-20T19:16:00.921Z,99925.45
2022-08-20T19:20:12.573Z,99917.96
2022-08-20T19:24:25.889Z,99916.02
2022-08-20T19:28:36.587Z,99924.66
2022-08-20T19:32:54.040Z,99929.75
2022-08-20T19:37:27.757Z,99933.11
2022-08-20T19:41:37.106Z,99931.58
2022-08-20T19:45:49.149Z,99929.88
2022-08-20T19:50:04.903Z,99915.93
2022-08-20T19:54:22.382Z,99915.98
2022-08-20T19:58:31.888Z,99916.86
2022-08-20T20:02:41.754Z,99927.40
2022-08-20T20:06:51.958Z,99930.14
2022-08-20T20:11:02.223Z,99925.46
2022-08-20T20:15:11.158Z,99916.19
2022-08-20T20:19:26.645Z,99916.20
2022-08-20T20:23:41.649Z,99917.92
2022-08-20T20:27:56.560Z,99916.59
2022-08-20T20:32:14.225Z,99914.20
2022-08-20T20:36:34.605Z,99906.35
2022-08-20T20:40:49.262Z,99907.99
2022-08-20T20:44:57.926Z,99902.52
2022-08-20T20:49:17.851Z,99904.08
2022-08-20T20:53:50.907Z,99903.05
2022-08-20T20:58:02.713Z,99901.97
2022-08-20T21:02:10.878Z,99895.50
2022-08-20T21:06:18.555Z,99887.39
2022-08-20T21:10:28.401Z,99885.61
2022-08-20T21:14:36.210Z,99886.27
2022-08-20T21:18:43.525Z,99887.21
2022-08-20T21:22:51.279Z,99891.16
2022-08-20T21:26:59.657Z,99885.41
2022-08-20T21:31:07.563Z,99894.41
2022-08-20T21:35:15.913Z,99894.48
2022-08-20T21:39:23.701Z,99895.00
2022-08-20T21:43:33.820Z,99893.45
2022-08-20T21:47:44.061Z,99897.09
2022-08-20T21:51:55.234Z,99908.08
2022-08-20T21:56:02.923Z,99900.88
2022-08-20T22:00:18.666Z,99895.96
2022-08-20T22:04:27.775Z,99898.27
2022-08-20T22:08:36.117Z,99894.25
2022-08-20T22:12:43.805Z,99896.90
2022-08-20T22:16:51.352Z,99900.39
2022-08-20T22:20:59.241Z,99901.52
2022-08-20T22:25:07.833Z,99896.80
2022-08-20T22:29:19.724Z,99904.14
2022-08-20T22:33:27.595Z,99906.05
2022-08-20T22:37:36.381Z,99903.98
2022-08-20T22:41:44.374Z,99903.79
2022-08-20T22:45:54.481Z,99902.83
2022-08-20T22:50:02.532Z,99895.50
2022-08-20T22:54:12.424Z,99890.33
2022-08-20T22:58:20.823Z,99891.95
2022-08-20T23:02:39.249Z,99894.06
2022-08-20T23:06:47.001Z,99890.53
2022-08-20T23:10:57.377Z,99890.64
2022-08-20T23:15:04.988Z,99886.15
2022-08-20T23:19:15.189Z,99885.59
2022-08-20T23:23:24.072Z,99881.00
2022-08-20T23:27:32.718Z,99874.48
2022-08-20T23:31:40.241Z,99878.73
2022-08-20T23:35:47.904Z,99885.02
2022-08-20T23:39:55.941Z,99883.94
2022-08-20T23:44:03.852Z,99880.92
2022-08-20T23:48:12.149Z,99885.75
2022-08-20T23:52:20.862Z,99882.27
2022-08-20T23:56:28.986Z,99883.05
